sensor_id;sensor_type;location;lat;lon;timestamp;P1;durP1;ratioP1;P2;durP2;ratioP2
67798;SDS011;54596;43.216;27.904;2023-03-15T00:01:56;10.07;;;3.40;;
67798;SDS011;54596;43.216;27.904;2023-03-15T00:04:22;11.07;;;3.28;;
67798;SDS011;54596;43.216;27.904;2023-03-15T00:06:50;10.30;;;3.20;;
67798;SDS011;54596;43.216;27.904;2023-03-15T00:09:17;9.05;;;3.40;;
67798;SDS011;54596;43.216;27.904;2023-03-15T00:11:42;8.80;;;3.22;;
67798;SDS011;54596;43.216;27.904;2023-03-15T00:14:08;8.88;;;3.20;;
67798;SDS011;54596;43.216;27.904;2023-03-15T00:16:35;13.23;;;3.67;;
67798;SDS011;54596;43.216;27.904;2023-03-15T00:19:01;10.32;;;3.22;;
67798;SDS011;54596;43.216;27.904;2023-03-15T00:21:26;11.02;;;3.35;;
67798;SDS011;54596;43.216;27.904;2023-03-15T00:23:54;9.07;;;3.40;;
67798;SDS011;54596;43.216;27.904;2023-03-15T00:26:20;11.65;;;3.72;;
67798;SDS011;54596;43.216;27.904;2023-03-15T00:28:45;8.98;;;3.42;;
67798;SDS011;54596;43.216;27.904;2023-03-15T00:31:15;11.18;;;3.78;;
67798;SDS011;54596;43.216;27.904;2023-03-15T00:33:42;10.38;;;3.40;;
67798;SDS011;54596;43.216;27.904;2023-03-15T00:36:08;10.77;;;3.42;;
67798;SDS011;54596;43.216;27.904;2023-03-15T00:38:35;11.80;;;3.65;;
67798;SDS011;54596;43.216;27.904;2023-03-15T00:41:06;9.90;;;3.30;;
67798;SDS011;54596;43.216;27.904;2023-03-15T00:43:34;11.02;;;3.45;;
67798;SDS011;54596;43.216;27.904;2023-03-15T00:45:59;11.50;;;3.50;;
67798;SDS011;54596;43.216;27.904;2023-03-15T00:48:25;11.02;;;3.60;;
67798;SDS011;54596;43.216;27.904;2023-03-15T00:51:00;15.88;;;4.00;;
67798;SDS011;54596;43.216;27.904;2023-03-15T00:53:26;12.73;;;3.80;;
67798;SDS011;54596;43.216;27.904;2023-03-15T00:55:52;10.90;;;3.45;;
67798;SDS011;54596;43.216;27.904;2023-03-15T00:58:17;8.98;;;3.55;;
67798;SDS011;54596;43.216;27.904;2023-03-15T01:00:43;9.38;;;3.40;;
67798;SDS011;54596;43.216;27.904;2023-03-15T01:03:08;9.68;;;3.70;;
67798;SDS011;54596;43.216;27.904;2023-03-15T01:05:34;11.40;;;4.00;;
67798;SDS011;54596;43.216;27.904;2023-03-15T01:08:00;11.98;;;3.58;;
67798;SDS011;54596;43.216;27.904;2023-03-15T01:10:27;11.52;;;3.88;;
67798;SDS011;54596;43.216;27.904;2023-03-15T01:12:53;12.02;;;4.40;;
67798;SDS011;54596;43.216;27.904;2023-03-15T01:15:18;11.77;;;4.57;;
67798;SDS011;54596;43.216;27.904;2023-03-15T01:17:44;10.90;;;4.05;;
67798;SDS011;54596;43.216;27.904;2023-03-15T01:20:10;10.52;;;4.38;;
67798;SDS011;54596;43.216;27.904;2023-03-15T01:22:38;11.20;;;4.68;;
67798;SDS011;54596;43.216;27.904;2023-03-15T01:25:03;11.45;;;3.90;;
67798;SDS011;54596;43.216;27.904;2023-03-15T01:27:29;13.93;;;4.20;;
67798;SDS011;54596;43.216;27.904;2023-03-15T01:29:55;12.65;;;4.13;;
67798;SDS011;54596;43.216;27.904;2023-03-15T01:32:21;9.55;;;4.00;;
67798;SDS011;54596;43.216;27.904;2023-03-15T01:34:46;11.35;;;3.83;;
67798;SDS011;54596;43.216;27.904;2023-03-15T01:37:11;13.05;;;4.13;;
67798;SDS011;54596;43.216;27.904;2023-03-15T01:39:39;11.80;;;4.10;;
67798;SDS011;54596;43.216;27.904;2023-03-15T01:42:05;11.07;;;3.70;;
67798;SDS011;54596;43.216;27.904;2023-03-15T01:47:19;9.18;;;3.63;;
67798;SDS011;54596;43.216;27.904;2023-03-15T01:49:46;10.15;;;3.70;;
67798;SDS011;54596;43.216;27.904;2023-03-15T01:52:17;11.73;;;4.10;;
67798;SDS011;54596;43.216;27.904;2023-03-15T01:54:48;11.98;;;4.15;;
67798;SDS011;54596;43.216;27.904;2023-03-15T01:57:25;11.00;;;4.07;;
67798;SDS011;54596;43.216;27.904;2023-03-15T02:00:06;13.43;;;4.53;;
67798;SDS011;54596;43.216;27.904;2023-03-15T02:02:40;12.27;;;3.90;;
67798;SDS011;54596;43.216;27.904;2023-03-15T02:05:12;12.10;;;3.97;;
67798;SDS011;54596;43.216;27.904;2023-03-15T02:07:42;14.13;;;4.20;;
67798;SDS011;54596;43.216;27.904;2023-03-15T02:10:14;12.57;;;3.95;;
67798;SDS011;54596;43.216;27.904;2023-03-15T02:13:02;11.80;;;4.30;;
67798;SDS011;54596;43.216;27.904;2023-03-15T02:15:28;13.30;;;3.72;;
67798;SDS011;54596;43.216;27.904;2023-03-15T02:17:54;12.77;;;4.28;;
67798;SDS011;54596;43.216;27.904;2023-03-15T02:20:37;11.15;;;4.47;;
67798;SDS011;54596;43.216;27.904;2023-03-15T02:23:10;10.32;;;4.13;;
67798;SDS011;54596;43.216;27.904;2023-03-15T02:28:06;12.30;;;4.30;;
67798;SDS011;54596;43.216;27.904;2023-03-15T02:30:33;15.10;;;4.22;;
67798;SDS011;54596;43.216;27.904;2023-03-15T02:32:59;11.48;;;4.13;;
67798;SDS011;54596;43.216;27.904;2023-03-15T02:35:30;12.38;;;4.20;;
67798;SDS011;54596;43.216;27.904;2023-03-15T02:37:59;9.98;;;4.30;;
67798;SDS011;54596;43.216;27.904;2023-03-15T02:40:28;13.30;;;4.32;;
67798;SDS011;54596;43.216;27.904;2023-03-15T02:42:59;13.65;;;4.38;;
67798;SDS011;54596;43.216;27.904;2023-03-15T02:45:29;11.77;;;4.10;;
67798;SDS011;54596;43.216;27.904;2023-03-15T02:47:57;11.82;;;4.00;;
67798;SDS011;54596;43.216;27.904;2023-03-15T02:50:24;12.15;;;4.10;;
67798;SDS011;54596;43.216;27.904;2023-03-15T02:52:50;11.70;;;4.22;;
67798;SDS011;54596;43.216;27.904;2023-03-15T02:55:16;11.85;;;4.35;;
67798;SDS011;54596;43.216;27.904;2023-03-15T02:57:43;11.45;;;4.43;;
67798;SDS011;54596;43.216;27.904;2023-03-15T03:00:09;12.25;;;4.60;;
67798;SDS011;54596;43.216;27.904;2023-03-15T03:02:41;14.32;;;4.40;;
67798;SDS011;54596;43.216;27.904;2023-03-15T03:05:09;11.93;;;4.20;;
67798;SDS011;54596;43.216;27.904;2023-03-15T03:07:36;13.73;;;4.40;;
67798;SDS011;54596;43.216;27.904;2023-03-15T03:10:02;15.30;;;4.65;;
67798;SDS011;54596;43.216;27.904;2023-03-15T03:12:29;11.60;;;4.13;;
67798;SDS011;54596;43.216;27.904;2023-03-15T03:14:54;10.20;;;3.70;;
67798;SDS011;54596;43.216;27.904;2023-03-15T03:17:21;11.35;;;4.15;;
67798;SDS011;54596;43.216;27.904;2023-03-15T03:19:47;11.95;;;4.25;;
67798;SDS011;54596;43.216;27.904;2023-03-15T03:22:12;12.15;;;4.20;;
67798;SDS011;54596;43.216;27.904;2023-03-15T03:24:38;10.95;;;3.97;;
67798;SDS011;54596;43.216;27.904;2023-03-15T03:27:04;9.55;;;3.58;;
67798;SDS011;54596;43.216;27.904;2023-03-15T03:29:29;14.43;;;4.10;;
67798;SDS011;54596;43.216;27.904;2023-03-15T03:31:55;10.60;;;3.88;;
67798;SDS011;54596;43.216;27.904;2023-03-15T03:34:21;10.32;;;3.85;;
67798;SDS011;54596;43.216;27.904;2023-03-15T03:36:47;13.20;;;3.65;;
67798;SDS011;54596;43.216;27.904;2023-03-15T03:39:12;13.95;;;3.53;;
67798;SDS011;54596;43.216;27.904;2023-03-15T03:41:38;12.13;;;3.40;;
67798;SDS011;54596;43.216;27.904;2023-03-15T03:44:04;10.73;;;3.58;;
67798;SDS011;54596;43.216;27.904;2023-03-15T03:46:30;11.95;;;3.50;;
67798;SDS011;54596;43.216;27.904;2023-03-15T03:48:55;9.15;;;3.38;;
67798;SDS011;54596;43.216;27.904;2023-03-15T03:51:21;9.50;;;3.33;;
67798;SDS011;54596;43.216;27.904;2023-03-15T03:53:47;8.77;;;3.13;;
67798;SDS011;54596;43.216;27.904;2023-03-15T03:56:12;9.57;;;3.30;;
67798;SDS011;54596;43.216;27.904;2023-03-15T03:58:38;11.48;;;3.95;;
67798;SDS011;54596;43.216;27.904;2023-03-15T04:01:03;13.95;;;3.92;;
67798;SDS011;54596;43.216;27.904;2023-03-15T04:03:29;11.80;;;3.40;;
67798;SDS011;54596;43.216;27.904;2023-03-15T04:05:56;13.05;;;4.50;;
67798;SDS011;54596;43.216;27.904;2023-03-15T04:08:23;11.55;;;3.88;;
67798;SDS011;54596;43.216;27.904;2023-03-15T04:10:52;11.60;;;3.50;;
67798;SDS011;54596;43.216;27.904;2023-03-15T04:13:19;10.35;;;3.75;;
67798;SDS011;54596;43.216;27.904;2023-03-15T04:15:46;12.98;;;3.70;;
67798;SDS011;54596;43.216;27.904;2023-03-15T04:18:13;10.57;;;3.78;;
67798;SDS011;54596;43.216;27.904;2023-03-15T04:20:39;11.93;;;3.50;;
67798;SDS011;54596;43.216;27.904;2023-03-15T04:23:17;14.00;;;5.25;;
67798;SDS011;54596;43.216;27.904;2023-03-15T04:25:49;11.07;;;4.35;;
67798;SDS011;54596;43.216;27.904;2023-03-15T04:28:17;10.13;;;3.65;;
67798;SDS011;54596;43.216;27.904;2023-03-15T04:30:44;10.95;;;4.38;;
67798;SDS011;54596;43.216;27.904;2023-03-15T04:33:11;15.38;;;4.47;;
67798;SDS011;54596;43.216;27.904;2023-03-15T04:35:38;11.85;;;3.92;;
67798;SDS011;54596;43.216;27.904;2023-03-15T04:38:06;8.85;;;3.85;;
67798;SDS011;54596;43.216;27.904;2023-03-15T04:40:32;11.27;;;3.60;;
67798;SDS011;54596;43.216;27.904;2023-03-15T04:43:02;12.75;;;4.60;;
67798;SDS011;54596;43.216;27.904;2023-03-15T04:45:29;11.45;;;3.90;;
67798;SDS011;54596;43.216;27.904;2023-03-15T04:47:58;11.05;;;4.20;;
67798;SDS011;54596;43.216;27.904;2023-03-15T04:50:25;13.10;;;4.55;;
67798;SDS011;54596;43.216;27.904;2023-03-15T04:52:51;10.13;;;4.40;;
67798;SDS011;54596;43.216;27.904;2023-03-15T04:55:17;14.02;;;5.53;;
67798;SDS011;54596;43.216;27.904;2023-03-15T04:57:42;13.18;;;5.43;;
67798;SDS011;54596;43.216;27.904;2023-03-15T05:00:08;10.30;;;3.55;;
67798;SDS011;54596;43.216;27.904;2023-03-15T05:02:37;11.40;;;4.00;;
67798;SDS011;54596;43.216;27.904;2023-03-15T05:05:06;9.63;;;3.78;;
67798;SDS011;54596;43.216;27.904;2023-03-15T05:07:33;10.90;;;4.00;;
67798;SDS011;54596;43.216;27.904;2023-03-15T05:09:59;11.60;;;4.07;;
67798;SDS011;54596;43.216;27.904;2023-03-15T05:12:25;10.88;;;3.70;;
67798;SDS011;54596;43.216;27.904;2023-03-15T05:14:53;13.13;;;4.45;;
67798;SDS011;54596;43.216;27.904;2023-03-15T05:17:18;13.20;;;4.10;;
67798;SDS011;54596;43.216;27.904;2023-03-15T05:19:46;12.70;;;3.92;;
67798;SDS011;54596;43.216;27.904;2023-03-15T05:22:12;13.95;;;5.95;;
67798;SDS011;54596;43.216;27.904;2023-03-15T05:24:38;13.23;;;3.83;;
67798;SDS011;54596;43.216;27.904;2023-03-15T05:27:03;15.93;;;6.40;;
67798;SDS011;54596;43.216;27.904;2023-03-15T05:29:29;17.63;;;4.38;;
67798;SDS011;54596;43.216;27.904;2023-03-15T05:31:54;12.07;;;4.70;;
67798;SDS011;54596;43.216;27.904;2023-03-15T05:34:20;9.77;;;3.90;;
67798;SDS011;54596;43.216;27.904;2023-03-15T05:36:49;12.52;;;4.20;;
67798;SDS011;54596;43.216;27.904;2023-03-15T05:39:16;12.65;;;4.30;;
67798;SDS011;54596;43.216;27.904;2023-03-15T05:41:42;13.73;;;3.95;;
67798;SDS011;54596;43.216;27.904;2023-03-15T05:44:08;11.98;;;4.80;;
67798;SDS011;54596;43.216;27.904;2023-03-15T05:46:33;14.98;;;4.72;;
67798;SDS011;54596;43.216;27.904;2023-03-15T05:48:59;12.10;;;3.85;;
67798;SDS011;54596;43.216;27.904;2023-03-15T05:51:24;9.68;;;3.50;;
67798;SDS011;54596;43.216;27.904;2023-03-15T05:53:50;10.88;;;3.72;;
67798;SDS011;54596;43.216;27.904;2023-03-15T05:56:15;16.08;;;6.32;;
67798;SDS011;54596;43.216;27.904;2023-03-15T05:58:41;15.63;;;4.10;;
67798;SDS011;54596;43.216;27.904;2023-03-15T06:01:06;12.52;;;3.58;;
67798;SDS011;54596;43.216;27.904;2023-03-15T06:03:31;16.25;;;6.15;;
67798;SDS011;54596;43.216;27.904;2023-03-15T06:05:57;15.75;;;4.63;;
67798;SDS011;54596;43.216;27.904;2023-03-15T06:08:23;15.40;;;4.55;;
67798;SDS011;54596;43.216;27.904;2023-03-15T06:10:49;15.73;;;6.70;;
67798;SDS011;54596;43.216;27.904;2023-03-15T06:13:15;14.07;;;4.95;;
67798;SDS011;54596;43.216;27.904;2023-03-15T06:15:40;12.93;;;4.35;;
67798;SDS011;54596;43.216;27.904;2023-03-15T06:18:06;12.02;;;5.05;;
67798;SDS011;54596;43.216;27.904;2023-03-15T06:20:33;9.90;;;3.65;;
67798;SDS011;54596;43.216;27.904;2023-03-15T06:22:59;11.63;;;3.45;;
67798;SDS011;54596;43.216;27.904;2023-03-15T06:25:24;15.80;;;3.92;;
67798;SDS011;54596;43.216;27.904;2023-03-15T06:27:50;12.60;;;3.28;;
67798;SDS011;54596;43.216;27.904;2023-03-15T06:30:16;11.48;;;3.40;;
67798;SDS011;54596;43.216;27.904;2023-03-15T06:32:42;11.38;;;3.30;;
67798;SDS011;54596;43.216;27.904;2023-03-15T06:35:07;151.98;;;15.02;;
67798;SDS011;54596;43.216;27.904;2023-03-15T06:37:33;12.50;;;3.38;;
67798;SDS011;54596;43.216;27.904;2023-03-15T06:40:00;9.65;;;3.03;;
67798;SDS011;54596;43.216;27.904;2023-03-15T06:42:30;11.95;;;4.55;;
67798;SDS011;54596;43.216;27.904;2023-03-15T06:44:55;10.40;;;3.30;;
67798;SDS011;54596;43.216;27.904;2023-03-15T06:47:21;11.68;;;3.20;;
67798;SDS011;54596;43.216;27.904;2023-03-15T06:49:46;11.25;;;3.40;;
67798;SDS011;54596;43.216;27.904;2023-03-15T06:52:14;11.55;;;3.00;;
67798;SDS011;54596;43.216;27.904;2023-03-15T06:54:40;9.05;;;2.80;;
67798;SDS011;54596;43.216;27.904;2023-03-15T06:57:06;11.38;;;3.00;;
67798;SDS011;54596;43.216;27.904;2023-03-15T06:59:31;10.77;;;3.00;;
67798;SDS011;54596;43.216;27.904;2023-03-15T07:01:57;9.85;;;3.00;;
67798;SDS011;54596;43.216;27.904;2023-03-15T07:04:22;9.02;;;2.95;;
67798;SDS011;54596;43.216;27.904;2023-03-15T07:06:47;8.85;;;2.90;;
67798;SDS011;54596;43.216;27.904;2023-03-15T07:09:13;12.55;;;2.83;;
67798;SDS011;54596;43.216;27.904;2023-03-15T07:11:38;15.10;;;3.42;;
67798;SDS011;54596;43.216;27.904;2023-03-15T07:14:04;12.43;;;3.50;;
67798;SDS011;54596;43.216;27.904;2023-03-15T07:16:29;13.95;;;3.58;;
67798;SDS011;54596;43.216;27.904;2023-03-15T07:18:55;11.23;;;3.05;;
67798;SDS011;54596;43.216;27.904;2023-03-15T07:21:23;13.23;;;2.90;;
67798;SDS011;54596;43.216;27.904;2023-03-15T07:23:48;11.07;;;2.97;;
67798;SDS011;54596;43.216;27.904;2023-03-15T07:26:14;11.48;;;3.30;;
67798;SDS011;54596;43.216;27.904;2023-03-15T07:28:39;11.52;;;3.15;;
67798;SDS011;54596;43.216;27.904;2023-03-15T07:31:06;10.23;;;3.13;;
67798;SDS011;54596;43.216;27.904;2023-03-15T07:33:32;12.32;;;3.35;;
67798;SDS011;54596;43.216;27.904;2023-03-15T07:36:00;10.93;;;3.50;;
67798;SDS011;54596;43.216;27.904;2023-03-15T07:38:28;17.23;;;4.55;;
67798;SDS011;54596;43.216;27.904;2023-03-15T07:40:53;15.88;;;3.85;;
67798;SDS011;54596;43.216;27.904;2023-03-15T07:43:20;12.63;;;3.50;;
67798;SDS011;54596;43.216;27.904;2023-03-15T07:45:45;14.00;;;4.07;;
67798;SDS011;54596;43.216;27.904;2023-03-15T07:48:11;14.82;;;3.70;;
67798;SDS011;54596;43.216;27.904;2023-03-15T07:50:37;12.38;;;3.70;;
67798;SDS011;54596;43.216;27.904;2023-03-15T07:53:03;11.60;;;3.95;;
67798;SDS011;54596;43.216;27.904;2023-03-15T07:55:33;15.68;;;4.22;;
67798;SDS011;54596;43.216;27.904;2023-03-15T07:57:59;12.13;;;3.80;;
67798;SDS011;54596;43.216;27.904;2023-03-15T08:00:25;13.73;;;3.72;;
67798;SDS011;54596;43.216;27.904;2023-03-15T08:02:50;14.00;;;3.78;;
67798;SDS011;54596;43.216;27.904;2023-03-15T08:05:16;14.73;;;4.07;;
67798;SDS011;54596;43.216;27.904;2023-03-15T08:07:45;12.45;;;3.75;;
67798;SDS011;54596;43.216;27.904;2023-03-15T08:10:11;12.57;;;3.60;;
67798;SDS011;54596;43.216;27.904;2023-03-15T08:12:37;14.43;;;3.95;;
67798;SDS011;54596;43.216;27.904;2023-03-15T08:15:05;13.85;;;3.72;;
67798;SDS011;54596;43.216;27.904;2023-03-15T08:17:30;14.65;;;4.30;;
67798;SDS011;54596;43.216;27.904;2023-03-15T08:19:56;13.95;;;4.10;;
67798;SDS011;54596;43.216;27.904;2023-03-15T08:22:21;10.50;;;3.47;;
67798;SDS011;54596;43.216;27.904;2023-03-15T08:24:48;15.50;;;4.03;;
67798;SDS011;54596;43.216;27.904;2023-03-15T08:27:14;13.45;;;3.72;;
67798;SDS011;54596;43.216;27.904;2023-03-15T08:29:40;11.90;;;3.60;;
67798;SDS011;54596;43.216;27.904;2023-03-15T08:32:05;14.30;;;3.85;;
67798;SDS011;54596;43.216;27.904;2023-03-15T08:34:32;12.27;;;4.20;;
67798;SDS011;54596;43.216;27.904;2023-03-15T08:36:58;14.32;;;4.97;;
67798;SDS011;54596;43.216;27.904;2023-03-15T08:39:25;13.55;;;4.80;;
67798;SDS011;54596;43.216;27.904;2023-03-15T08:41:50;13.75;;;4.30;;
67798;SDS011;54596;43.216;27.904;2023-03-15T08:44:16;14.65;;;4.68;;
67798;SDS011;54596;43.216;27.904;2023-03-15T08:46:41;14.30;;;4.53;;
67798;SDS011;54596;43.216;27.904;2023-03-15T08:49:07;11.85;;;4.70;;
67798;SDS011;54596;43.216;27.904;2023-03-15T08:51:32;14.77;;;5.15;;
67798;SDS011;54596;43.216;27.904;2023-03-15T08:53:58;18.23;;;5.15;;
67798;SDS011;54596;43.216;27.904;2023-03-15T08:56:28;12.70;;;4.88;;
67798;SDS011;54596;43.216;27.904;2023-03-15T08:58:53;15.13;;;5.05;;
67798;SDS011;54596;43.216;27.904;2023-03-15T09:01:19;14.32;;;5.15;;
67798;SDS011;54596;43.216;27.904;2023-03-15T09:03:44;13.88;;;5.50;;
67798;SDS011;54596;43.216;27.904;2023-03-15T09:06:10;14.48;;;5.75;;
67798;SDS011;54596;43.216;27.904;2023-03-15T09:08:35;13.40;;;4.95;;
67798;SDS011;54596;43.216;27.904;2023-03-15T09:11:01;12.70;;;5.00;;
67798;SDS011;54596;43.216;27.904;2023-03-15T09:13:26;16.05;;;5.28;;
67798;SDS011;54596;43.216;27.904;2023-03-15T09:15:52;14.40;;;5.30;;
67798;SDS011;54596;43.216;27.904;2023-03-15T09:18:19;16.58;;;5.40;;
67798;SDS011;54596;43.216;27.904;2023-03-15T09:20:46;15.55;;;5.63;;
67798;SDS011;54596;43.216;27.904;2023-03-15T09:23:11;14.55;;;5.38;;
67798;SDS011;54596;43.216;27.904;2023-03-15T09:25:37;13.02;;;5.90;;
67798;SDS011;54596;43.216;27.904;2023-03-15T09:28:03;16.25;;;6.43;;
67798;SDS011;54596;43.216;27.904;2023-03-15T09:30:30;12.90;;;6.53;;
67798;SDS011;54596;43.216;27.904;2023-03-15T09:32:55;15.95;;;6.80;;
67798;SDS011;54596;43.216;27.904;2023-03-15T09:35:21;16.00;;;7.53;;
67798;SDS011;54596;43.216;27.904;2023-03-15T09:37:47;19.88;;;8.05;;
67798;SDS011;54596;43.216;27.904;2023-03-15T09:40:15;18.30;;;8.93;;
67798;SDS011;54596;43.216;27.904;2023-03-15T09:48:01;18.35;;;9.65;;
67798;SDS011;54596;43.216;27.904;2023-03-15T09:50:33;21.30;;;9.80;;
67798;SDS011;54596;43.216;27.904;2023-03-15T09:56:24;18.52;;;9.45;;
67798;SDS011;54596;43.216;27.904;2023-03-15T09:58:58;20.08;;;10.88;;
67798;SDS011;54596;43.216;27.904;2023-03-15T10:01:33;21.27;;;11.73;;
67798;SDS011;54596;43.216;27.904;2023-03-15T10:04:08;20.65;;;11.68;;
67798;SDS011;54596;43.216;27.904;2023-03-15T10:07:01;21.90;;;11.98;;
67798;SDS011;54596;43.216;27.904;2023-03-15T10:09:31;23.70;;;12.50;;
67798;SDS011;54596;43.216;27.904;2023-03-15T10:20:11;25.75;;;13.70;;
67798;SDS011;54596;43.216;27.904;2023-03-15T10:25:29;22.70;;;12.38;;
67798;SDS011;54596;43.216;27.904;2023-03-15T10:30:34;22.48;;;13.63;;
67798;SDS011;54596;43.216;27.904;2023-03-15T10:33:02;22.45;;;14.88;;
67798;SDS011;54596;43.216;27.904;2023-03-15T10:35:38;22.92;;;14.60;;
67798;SDS011;54596;43.216;27.904;2023-03-15T10:38:12;24.33;;;14.57;;
67798;SDS011;54596;43.216;27.904;2023-03-15T10:40:44;21.25;;;14.73;;
67798;SDS011;54596;43.216;27.904;2023-03-15T10:46:04;28.42;;;14.32;;
67798;SDS011;54596;43.216;27.904;2023-03-15T10:48:32;19.75;;;13.40;;
67798;SDS011;54596;43.216;27.904;2023-03-15T10:51:15;22.08;;;13.65;;
67798;SDS011;54596;43.216;27.904;2023-03-15T10:56:24;24.95;;;14.32;;
67798;SDS011;54596;43.216;27.904;2023-03-15T10:58:53;26.60;;;14.00;;
67798;SDS011;54596;43.216;27.904;2023-03-15T11:01:24;25.65;;;13.50;;
67798;SDS011;54596;43.216;27.904;2023-03-15T11:06:47;25.80;;;13.23;;
67798;SDS011;54596;43.216;27.904;2023-03-15T11:09:16;19.90;;;12.27;;
67798;SDS011;54596;43.216;27.904;2023-03-15T11:11:50;20.02;;;11.13;;
67798;SDS011;54596;43.216;27.904;2023-03-15T11:14:16;19.08;;;12.02;;
67798;SDS011;54596;43.216;27.904;2023-03-15T11:16:45;19.88;;;11.82;;
67798;SDS011;54596;43.216;27.904;2023-03-15T11:19:14;19.27;;;11.00;;
67798;SDS011;54596;43.216;27.904;2023-03-15T11:21:41;20.73;;;10.98;;
67798;SDS011;54596;43.216;27.904;2023-03-15T11:24:22;23.42;;;11.70;;
67798;SDS011;54596;43.216;27.904;2023-03-15T11:26:53;19.15;;;11.80;;
67798;SDS011;54596;43.216;27.904;2023-03-15T11:29:26;23.13;;;12.10;;
67798;SDS011;54596;43.216;27.904;2023-03-15T11:31:57;18.92;;;10.10;;
67798;SDS011;54596;43.216;27.904;2023-03-15T11:34:26;21.50;;;11.40;;
67798;SDS011;54596;43.216;27.904;2023-03-15T11:37:01;21.35;;;12.98;;
67798;SDS011;54596;43.216;27.904;2023-03-15T11:42:22;24.80;;;12.10;;
67798;SDS011;54596;43.216;27.904;2023-03-15T11:45:00;20.27;;;12.63;;
67798;SDS011;54596;43.216;27.904;2023-03-15T11:47:42;22.63;;;12.38;;
67798;SDS011;54596;43.216;27.904;2023-03-15T11:50:14;20.95;;;12.73;;
67798;SDS011;54596;43.216;27.904;2023-03-15T11:52:40;21.33;;;12.45;;
67798;SDS011;54596;43.216;27.904;2023-03-15T11:55:18;18.92;;;12.20;;
67798;SDS011;54596;43.216;27.904;2023-03-15T11:57:49;18.45;;;11.80;;
67798;SDS011;54596;43.216;27.904;2023-03-15T12:00:59;23.42;;;11.95;;
67798;SDS011;54596;43.216;27.904;2023-03-15T12:05:50;21.55;;;12.90;;
67798;SDS011;54596;43.216;27.904;2023-03-15T12:08:24;21.50;;;12.27;;
67798;SDS011;54596;43.216;27.904;2023-03-15T12:16:21;24.30;;;13.07;;
67798;SDS011;54596;43.216;27.904;2023-03-15T12:18:49;22.77;;;11.70;;
67798;SDS011;54596;43.216;27.904;2023-03-15T12:21:23;23.00;;;12.80;;
67798;SDS011;54596;43.216;27.904;2023-03-15T12:24:03;20.23;;;12.10;;
67798;SDS011;54596;43.216;27.904;2023-03-15T12:26:42;25.08;;;12.18;;
67798;SDS011;54596;43.216;27.904;2023-03-15T12:29:30;22.90;;;12.88;;
67798;SDS011;54596;43.216;27.904;2023-03-15T12:39:49;20.98;;;13.68;;
67798;SDS011;54596;43.216;27.904;2023-03-15T12:45:30;24.00;;;13.00;;
67798;SDS011;54596;43.216;27.904;2023-03-15T12:58:41;25.40;;;14.38;;
67798;SDS011;54596;43.216;27.904;2023-03-15T13:01:11;25.77;;;13.75;;
67798;SDS011;54596;43.216;27.904;2023-03-15T13:03:40;20.98;;;13.35;;
67798;SDS011;54596;43.216;27.904;2023-03-15T13:09:13;24.20;;;14.02;;
67798;SDS011;54596;43.216;27.904;2023-03-15T13:12:00;21.50;;;13.07;;
67798;SDS011;54596;43.216;27.904;2023-03-15T13:22:54;24.73;;;15.18;;
67798;SDS011;54596;43.216;27.904;2023-03-15T13:28:10;27.67;;;15.52;;
67798;SDS011;54596;43.216;27.904;2023-03-15T13:30:55;21.83;;;14.68;;
67798;SDS011;54596;43.216;27.904;2023-03-15T13:33:27;22.42;;;14.32;;
67798;SDS011;54596;43.216;27.904;2023-03-15T13:35:59;25.20;;;14.27;;
67798;SDS011;54596;43.216;27.904;2023-03-15T13:38:44;24.42;;;14.40;;
67798;SDS011;54596;43.216;27.904;2023-03-15T13:43:54;22.60;;;14.77;;
67798;SDS011;54596;43.216;27.904;2023-03-15T13:46:22;23.25;;;14.52;;
67798;SDS011;54596;43.216;27.904;2023-03-15T13:48:51;23.63;;;13.23;;
67798;SDS011;54596;43.216;27.904;2023-03-15T13:51:30;22.85;;;13.43;;
67798;SDS011;54596;43.216;27.904;2023-03-15T13:54:06;21.75;;;12.20;;
67798;SDS011;54596;43.216;27.904;2023-03-15T13:56:41;20.85;;;11.68;;
67798;SDS011;54596;43.216;27.904;2023-03-15T13:59:19;18.35;;;9.80;;
67798;SDS011;54596;43.216;27.904;2023-03-15T14:01:48;23.23;;;11.43;;
67798;SDS011;54596;43.216;27.904;2023-03-15T14:04:18;24.50;;;11.50;;
67798;SDS011;54596;43.216;27.904;2023-03-15T14:06:46;23.92;;;13.40;;
67798;SDS011;54596;43.216;27.904;2023-03-15T14:09:19;21.27;;;12.20;;
67798;SDS011;54596;43.216;27.904;2023-03-15T14:12:04;21.92;;;12.00;;
67798;SDS011;54596;43.216;27.904;2023-03-15T14:14:31;20.30;;;13.00;;
67798;SDS011;54596;43.216;27.904;2023-03-15T14:17:06;25.73;;;13.88;;
67798;SDS011;54596;43.216;27.904;2023-03-15T14:19:50;26.25;;;12.57;;
67798;SDS011;54596;43.216;27.904;2023-03-15T14:22:19;23.95;;;11.10;;
67798;SDS011;54596;43.216;27.904;2023-03-15T14:24:46;23.10;;;12.93;;
67798;SDS011;54596;43.216;27.904;2023-03-15T14:27:22;23.50;;;12.23;;
67798;SDS011;54596;43.216;27.904;2023-03-15T14:29:51;22.92;;;11.82;;
67798;SDS011;54596;43.216;27.904;2023-03-15T14:32:32;21.15;;;11.18;;
67798;SDS011;54596;43.216;27.904;2023-03-15T14:42:45;26.20;;;13.27;;
67798;SDS011;54596;43.216;27.904;2023-03-15T14:45:11;22.33;;;10.80;;
67798;SDS011;54596;43.216;27.904;2023-03-15T14:47:40;24.63;;;12.60;;
67798;SDS011;54596;43.216;27.904;2023-03-15T14:50:12;24.95;;;12.75;;
67798;SDS011;54596;43.216;27.904;2023-03-15T14:52:44;25.38;;;14.07;;
67798;SDS011;54596;43.216;27.904;2023-03-15T14:55:14;22.17;;;13.10;;
67798;SDS011;54596;43.216;27.904;2023-03-15T14:57:42;24.03;;;12.97;;
67798;SDS011;54596;43.216;27.904;2023-03-15T15:00:10;25.10;;;14.07;;
67798;SDS011;54596;43.216;27.904;2023-03-15T15:02:37;26.20;;;14.50;;
67798;SDS011;54596;43.216;27.904;2023-03-15T15:07:41;27.75;;;15.90;;
67798;SDS011;54596;43.216;27.904;2023-03-15T15:10:07;27.95;;;15.65;;
67798;SDS011;54596;43.216;27.904;2023-03-15T15:12:33;25.35;;;14.73;;
67798;SDS011;54596;43.216;27.904;2023-03-15T15:14:59;29.20;;;16.38;;
67798;SDS011;54596;43.216;27.904;2023-03-15T15:17:24;26.80;;;16.38;;
67798;SDS011;54596;43.216;27.904;2023-03-15T15:19:50;25.48;;;16.23;;
67798;SDS011;54596;43.216;27.904;2023-03-15T15:22:15;24.05;;;15.07;;
67798;SDS011;54596;43.216;27.904;2023-03-15T15:24:47;28.55;;;14.98;;
67798;SDS011;54596;43.216;27.904;2023-03-15T15:27:13;23.55;;;16.38;;
67798;SDS011;54596;43.216;27.904;2023-03-15T15:29:39;24.23;;;16.40;;
67798;SDS011;54596;43.216;27.904;2023-03-15T15:32:04;24.00;;;14.48;;
67798;SDS011;54596;43.216;27.904;2023-03-15T15:34:30;25.70;;;17.83;;
67798;SDS011;54596;43.216;27.904;2023-03-15T15:36:58;28.10;;;18.23;;
67798;SDS011;54596;43.216;27.904;2023-03-15T15:39:25;31.55;;;17.98;;
67798;SDS011;54596;43.216;27.904;2023-03-15T15:41:54;28.35;;;17.88;;
67798;SDS011;54596;43.216;27.904;2023-03-15T15:44:20;25.98;;;16.38;;
67798;SDS011;54596;43.216;27.904;2023-03-15T15:46:48;26.25;;;17.35;;
67798;SDS011;54596;43.216;27.904;2023-03-15T15:49:13;28.17;;;16.83;;
67798;SDS011;54596;43.216;27.904;2023-03-15T15:51:40;30.15;;;18.15;;
67798;SDS011;54596;43.216;27.904;2023-03-15T15:54:27;28.73;;;17.30;;
67798;SDS011;54596;43.216;27.904;2023-03-15T15:56:56;27.70;;;18.02;;
67798;SDS011;54596;43.216;27.904;2023-03-15T15:59:22;31.00;;;19.83;;
67798;SDS011;54596;43.216;27.904;2023-03-15T16:01:51;28.13;;;20.23;;